Time;durP1;ratioP1;P1;durP2;ratioP2;P2;SDS_P1;SDS_P2;PMS_P1;PMS_P2;Temp;Humidity;BMP_temperature;BMP_pressure;BME280_temperature;BME280_humidity;BME280_pressure;Samples;Min_cycle;Max_cycle;Signal;HPM_P1;HPM_P2
2023/02/05 00:02:13;;;;;;;35.00;29.45;;;24.70;99.90;;;;;;1883223;76;21486;-83
2023/02/05 00:04:44;;;;;;;32.48;25.62;;;24.70;99.90;;;;;;1884701;74;21227;-82
2023/02/05 00:07:15;;;;;;;33.90;26.30;;;24.80;99.90;;;;;;1889865;74;21174;-82
2023/02/05 00:09:45;;;;;;;35.40;30.32;;;24.70;99.90;;;;;;1887583;75;21130;-82
2023/02/05 00:12:16;;;;;;;38.63;27.35;;;24.70;99.90;;;;;;1886481;76;21211;-81
2023/02/05 00:14:47;;;;;;;33.53;27.07;;;24.70;99.90;;;;;;1884389;76;21185;-83
2023/02/05 00:17:17;;;;;;;32.63;24.90;;;24.80;99.90;;;;;;1879558;76;21180;-83
2023/02/05 00:19:48;;;;;;;31.42;24.80;;;24.70;99.90;;;;;;1882168;75;21567;-84
2023/02/05 00:22:19;;;;;;;32.67;25.30;;;24.70;99.90;;;;;;1887374;74;21129;-82
2023/02/05 00:24:50;;;;;;;35.28;27.02;;;24.70;99.90;;;;;;1887428;75;21187;-83
2023/02/05 00:27:20;;;;;;;29.82;24.55;;;24.70;99.90;;;;;;1886367;75;21102;-84
2023/02/05 00:29:51;;;;;;;35.25;26.77;;;24.70;99.90;;;;;;1901998;74;21581;-84
2023/02/05 00:32:41;;;;;;;35.45;26.73;;;24.70;99.90;;;;;;1902195;74;21199;-84
2023/02/05 00:35:12;;;;;;;37.33;26.90;;;24.60;99.90;;;;;;1926870;73;21146;-82
2023/02/05 00:37:43;;;;;;;31.57;25.68;;;24.60;99.90;;;;;;1926290;73;21151;-84
2023/02/05 00:40:14;;;;;;;36.93;26.65;;;24.60;99.90;;;;;;1926177;73;21212;-83
2023/02/05 00:42:44;;;;;;;31.25;25.17;;;24.60;99.90;;;;;;1930795;73;21064;-82
2023/02/05 00:45:15;;;;;;;30.12;24.85;;;24.60;99.90;;;;;;1924398;73;21228;-84
2023/02/05 00:47:47;;;;;;;34.55;26.35;;;24.60;99.90;;;;;;1911600;73;21701;-83
2023/02/05 00:50:18;;;;;;;35.80;25.20;;;24.70;99.90;;;;;;1935157;73;21128;-82
2023/02/05 00:52:50;;;;;;;29.37;24.77;;;24.70;99.90;;;;;;1936850;73;21610;-83
2023/02/05 00:55:21;;;;;;;29.02;24.67;;;24.70;99.90;;;;;;1921863;73;21131;-82
2023/02/05 00:57:52;;;;;;;30.50;24.52;;;24.70;99.90;;;;;;1858035;76;21135;-84
2023/02/05 01:00:23;;;;;;;30.00;25.80;;;24.80;99.90;;;;;;1871264;76;21206;-84
2023/02/05 01:02:54;;;;;;;32.35;23.67;;;24.80;99.90;;;;;;1863003;75;21089;-82
2023/02/05 01:05:25;;;;;;;34.78;26.30;;;24.80;99.90;;;;;;1880174;75;21074;-82
2023/02/05 01:07:56;;;;;;;32.48;25.45;;;24.80;99.90;;;;;;1882638;75;21125;-82
2023/02/05 01:10:27;;;;;;;29.72;24.25;;;24.90;99.90;;;;;;1873662;76;21573;-85
2023/02/05 01:12:58;;;;;;;27.30;22.90;;;24.90;99.90;;;;;;1872979;76;21204;-82
2023/02/05 01:15:28;;;;;;;30.45;22.82;;;25.00;99.90;;;;;;1873183;75;21149;-83
2023/02/05 01:18:00;;;;;;;27.95;21.52;;;25.10;99.90;;;;;;1868508;75;21668;-83
2023/02/05 01:20:31;;;;;;;24.92;20.15;;;25.10;99.90;;;;;;1891995;75;21168;-84
2023/02/05 01:23:02;;;;;;;28.00;22.48;;;25.20;99.90;;;;;;1861099;76;21147;-82
2023/02/05 01:25:33;;;;;;;24.63;20.35;;;25.30;99.90;;;;;;1880026;75;21122;-83
2023/02/05 01:28:05;;;;;;;26.62;21.02;;;25.30;99.90;;;;;;1852825;76;21170;-84
2023/02/05 01:30:37;;;;;;;24.12;21.37;;;25.30;99.90;;;;;;1874889;76;21140;-83
2023/02/05 01:33:08;;;;;;;24.70;20.62;;;25.40;99.90;;;;;;1871754;76;21809;-84
2023/02/05 01:35:43;;;;;;;24.98;21.45;;;25.50;99.90;;;;;;1881652;75;21161;-84
2023/02/05 01:38:14;;;;;;;24.52;19.50;;;25.60;99.90;;;;;;1905104;74;21153;-84
2023/02/05 01:40:45;;;;;;;27.65;18.55;;;25.60;99.90;;;;;;1893882;74;21147;-84
2023/02/05 01:43:17;;;;;;;22.87;17.52;;;25.70;99.70;;;;;;1892299;76;21088;-85
2023/02/05 01:45:50;;;;;;;21.87;17.10;;;25.70;99.60;;;;;;1896247;75;21164;-85
2023/02/05 01:48:24;;;;;;;20.92;17.23;;;25.80;99.40;;;;;;1891535;74;21062;-85
2023/02/05 01:50:57;;;;;;;23.83;18.73;;;25.90;99.20;;;;;;1892891;75;21144;-86
2023/02/05 01:53:30;;;;;;;24.37;18.35;;;25.90;99.00;;;;;;1898128;74;21117;-84
2023/02/05 01:56:10;;;;;;;16.95;14.55;;;26.00;99.40;;;;;;1895364;74;21120;-83
2023/02/05 01:58:49;;;;;;;16.52;14.60;;;26.00;98.60;;;;;;1893034;74;21240;-82
2023/02/05 02:01:20;;;;;;;20.30;16.05;;;26.10;98.20;;;;;;1890547;74;21060;-83
2023/02/05 02:03:53;;;;;;;18.73;15.60;;;26.10;98.20;;;;;;1897170;74;21131;-83
2023/02/05 02:06:24;;;;;;;19.02;15.40;;;26.20;98.20;;;;;;1883977;74;21100;-84
2023/02/05 02:08:55;;;;;;;19.77;15.05;;;26.20;98.10;;;;;;1867205;76;21246;-83
2023/02/05 02:11:28;;;;;;;20.32;14.55;;;26.20;98.00;;;;;;1883214;74;21111;-83
2023/02/05 02:14:01;;;;;;;18.40;14.38;;;26.30;97.90;;;;;;1864072;76;21261;-84
2023/02/05 02:16:33;;;;;;;20.92;15.83;;;26.30;97.80;;;;;;1882239;74;21240;-83
2023/02/05 02:19:06;;;;;;;18.90;15.80;;;26.30;97.60;;;;;;1908197;74;21124;-82
2023/02/05 02:22:05;;;;;;;19.20;17.12;;;26.30;97.40;;;;;;1905821;74;21151;-79
2023/02/05 02:24:38;;;;;;;22.48;16.73;;;26.40;97.50;;;;;;1858016;77;21119;-81
2023/02/05 02:27:17;;;;;;;22.13;16.20;;;26.40;97.50;;;;;;1862432;76;21151;-82
2023/02/05 02:29:56;;;;;;;21.80;16.50;;;26.40;97.50;;;;;;1888284;74;21083;-84
2023/02/05 02:32:35;;;;;;;21.20;16.07;;;26.40;97.30;;;;;;1892688;74;21179;-82
2023/02/05 02:35:11;;;;;;;21.20;15.83;;;26.50;97.30;;;;;;1887592;76;22194;-83
2023/02/05 02:37:51;;;;;;;20.97;15.28;;;26.60;97.30;;;;;;1883090;76;21170;-84
2023/02/05 02:40:27;;;;;;;19.07;14.25;;;26.60;97.10;;;;;;1853862;76;21103;-83
2023/02/05 02:43:16;;;;;;;16.50;14.58;;;26.70;96.90;;;;;;1884952;76;21155;-83
2023/02/05 02:45:49;;;;;;;15.98;13.22;;;26.70;96.90;;;;;;1881914;76;21084;-82
2023/02/05 02:48:22;;;;;;;16.27;12.85;;;26.80;96.80;;;;;;1883745;76;21301;-83
2023/02/05 02:50:56;;;;;;;17.75;13.05;;;26.80;96.40;;;;;;1879522;74;21675;-81
2023/02/05 02:53:32;;;;;;;21.17;14.05;;;26.90;96.00;;;;;;1879167;75;21205;-82
2023/02/05 02:56:06;;;;;;;22.63;14.70;;;26.90;96.10;;;;;;1877031;75;21645;-83
2023/02/05 02:58:42;;;;;;;20.30;15.25;;;27.00;96.10;;;;;;1932999;73;21683;-83
2023/02/05 03:01:14;;;;;;;21.93;15.17;;;27.00;96.10;;;;;;1929278;73;21630;-83
2023/02/05 03:03:47;;;;;;;19.23;14.85;;;27.00;96.50;;;;;;1930013;73;21162;-83
2023/02/05 03:06:20;;;;;;;18.05;14.30;;;27.00;96.00;;;;;;1928907;73;21107;-82
2023/02/05 03:09:01;;;;;;;21.15;15.48;;;27.00;96.00;;;;;;1949004;73;21170;-83
2023/02/05 03:11:32;;;;;;;17.23;14.50;;;27.00;96.00;;;;;;1924496;73;21171;-84
2023/02/05 03:14:06;;;;;;;21.20;15.18;;;26.90;95.90;;;;;;1928065;73;21583;-82
2023/02/05 03:16:37;;;;;;;22.70;16.32;;;27.00;95.90;;;;;;1927910;73;21079;-82
2023/02/05 03:19:08;;;;;;;21.42;17.42;;;26.90;96.00;;;;;;1913659;73;21167;-83
2023/02/05 03:21:44;;;;;;;27.00;18.32;;;26.90;96.20;;;;;;1888413;75;21164;-83
2023/02/05 03:24:15;;;;;;;23.87;18.47;;;26.90;96.40;;;;;;1863144;76;21099;-83
2023/02/05 03:26:46;;;;;;;26.68;19.42;;;26.80;96.70;;;;;;1886581;74;21210;-84
2023/02/05 03:29:19;;;;;;;23.55;19.15;;;26.80;96.80;;;;;;1894218;74;21567;-82
2023/02/05 03:32:09;;;;;;;27.07;22.02;;;26.70;96.90;;;;;;1862236;76;21171;-82
2023/02/05 03:34:48;;;;;;;26.65;20.55;;;26.70;97.10;;;;;;1915437;73;21166;-82
2023/02/05 03:37:39;;;;;;;24.57;20.08;;;26.60;97.00;;;;;;1924905;73;21080;-83
2023/02/05 03:40:24;;;;;;;24.95;19.02;;;26.60;97.00;;;;;;1935009;73;21157;-82
2023/02/05 03:43:15;;;;;;;24.10;18.42;;;26.50;97.10;;;;;;1918995;73;21147;-81
2023/02/05 03:46:03;;;;;;;21.27;18.12;;;26.50;97.10;;;;;;1923816;73;21092;-83
2023/02/05 03:48:47;;;;;;;22.40;17.10;;;26.40;97.10;;;;;;1920043;73;21216;-82
2023/02/05 03:51:35;;;;;;;18.55;16.52;;;26.40;97.20;;;;;;1934778;73;21108;-83
2023/02/05 03:54:20;;;;;;;18.62;15.75;;;26.40;97.20;;;;;;1928153;73;21159;-82
2023/02/05 03:57:02;;;;;;;18.00;14.93;;;26.40;97.20;;;;;;1928820;73;21174;-81
2023/02/05 03:59:34;;;;;;;16.87;13.95;;;26.40;97.20;;;;;;1894304;74;21151;-82
2023/02/05 04:02:06;;;;;;;16.40;14.13;;;26.50;97.10;;;;;;1856309;76;21215;-81
2023/02/05 04:04:37;;;;;;;20.25;14.90;;;26.50;97.10;;;;;;1869225;75;21172;-84
2023/02/05 04:07:08;;;;;;;21.23;13.58;;;26.50;97.00;;;;;;1863856;76;21172;-82
2023/02/05 04:09:38;;;;;;;19.52;13.95;;;26.60;96.90;;;;;;1856630;76;21187;-82
2023/02/05 04:12:10;;;;;;;16.00;13.53;;;26.50;96.90;;;;;;1883968;75;21622;-84
2023/02/05 04:14:40;;;;;;;16.50;14.65;;;26.60;96.80;;;;;;1857084;76;21256;-81
2023/02/05 04:17:12;;;;;;;17.40;14.35;;;26.60;96.70;;;;;;1927647;73;21174;-83
2023/02/05 04:19:43;;;;;;;18.20;14.03;;;26.70;96.70;;;;;;1929042;73;21202;-83
2023/02/05 04:22:14;;;;;;;20.32;15.95;;;26.70;96.70;;;;;;1940531;73;21161;-82
2023/02/05 04:24:45;;;;;;;17.95;15.18;;;26.80;96.60;;;;;;1931809;73;21165;-84
2023/02/05 04:27:15;;;;;;;16.80;14.38;;;26.80;96.50;;;;;;1923905;73;21237;-83
2023/02/05 04:29:46;;;;;;;16.62;14.47;;;26.80;96.30;;;;;;1934052;73;21299;-84
2023/02/05 04:32:18;;;;;;;18.92;15.93;;;26.80;96.50;;;;;;1924588;72;21172;-83
2023/02/05 04:34:53;;;;;;;17.30;15.30;;;26.80;96.50;;;;;;1938287;73;21190;-83
2023/02/05 04:37:24;;;;;;;20.45;16.60;;;26.90;96.50;;;;;;1940149;73;21083;-85
2023/02/05 04:39:54;;;;;;;20.90;17.55;;;26.90;96.40;;;;;;1940557;73;21572;-83
2023/02/05 04:42:25;;;;;;;23.55;18.37;;;26.90;96.50;;;;;;1935810;73;21076;-83
2023/02/05 04:44:56;;;;;;;23.57;19.02;;;26.90;96.30;;;;;;1936046;73;21603;-83
2023/02/05 04:47:27;;;;;;;24.72;17.48;;;26.90;96.40;;;;;;1944222;73;21134;-80
2023/02/05 04:49:58;;;;;;;19.73;17.12;;;26.80;96.40;;;;;;1943575;73;21550;-83
2023/02/05 04:52:28;;;;;;;18.98;16.02;;;26.80;96.50;;;;;;1953176;73;21072;-84
2023/02/05 04:54:59;;;;;;;18.07;15.50;;;26.70;96.50;;;;;;1940660;73;21104;-82
2023/02/05 04:57:31;;;;;;;15.30;13.68;;;26.70;97.00;;;;;;1944658;73;21157;-83
2023/02/05 05:00:02;;;;;;;18.42;13.22;;;26.70;96.60;;;;;;1939389;73;21184;-82
2023/02/05 05:02:32;;;;;;;15.30;13.03;;;26.70;96.60;;;;;;1941510;73;21107;-84
2023/02/05 05:05:03;;;;;;;17.40;13.50;;;26.70;96.50;;;;;;1943955;73;21162;-84
2023/02/05 05:07:34;;;;;;;17.20;11.85;;;26.60;96.50;;;;;;1946736;73;21162;-83
2023/02/05 05:10:06;;;;;;;12.00;10.68;;;26.70;96.50;;;;;;1936440;73;21278;-86
2023/02/05 05:12:37;;;;;;;15.72;10.72;;;26.70;96.30;;;;;;1934161;73;21671;-84
2023/02/05 05:15:08;;;;;;;14.13;10.50;;;26.70;96.20;;;;;;1935730;73;21581;-84
2023/02/05 05:17:39;;;;;;;12.18;10.68;;;26.60;96.20;;;;;;1936602;73;21111;-82
2023/02/05 05:20:11;;;;;;;15.43;10.63;;;26.60;96.30;;;;;;1936028;73;21108;-83
2023/02/05 05:22:42;;;;;;;14.28;11.55;;;26.60;96.40;;;;;;1950018;73;21103;-84
2023/02/05 05:25:12;;;;;;;15.48;11.75;;;26.50;96.50;;;;;;1934334;73;21126;-83
2023/02/05 05:27:43;;;;;;;15.72;12.30;;;26.50;96.50;;;;;;1944512;73;21174;-84
2023/02/05 05:30:14;;;;;;;13.40;12.00;;;26.50;96.60;;;;;;1955526;73;21114;-84
2023/02/05 05:32:51;;;;;;;15.98;13.00;;;26.40;96.70;;;;;;1936393;73;21138;-82
2023/02/05 05:35:18;;;;;;;14.35;12.60;;;26.40;96.70;;;;;;1946742;73;21114;-83
2023/02/05 05:37:49;;;;;;;17.10;13.75;;;26.40;96.80;;;;;;1946670;72;21142;-83
2023/02/05 05:45:59;;;;;;;15.13;12.68;;;26.40;96.90;;;;;;1945034;73;21096;-82
2023/02/05 05:48:30;;;;;;;13.55;12.13;;;26.30;97.00;;;;;;1937060;73;21193;-83
2023/02/05 05:51:03;;;;;;;15.43;11.97;;;26.30;97.00;;;;;;1893737;75;21139;-83
2023/02/05 05:53:33;;;;;;;13.08;11.18;;;26.30;97.00;;;;;;1929254;73;21621;-82
2023/02/05 05:56:05;;;;;;;13.80;11.80;;;26.30;97.00;;;;;;1939603;73;21139;-81
2023/02/05 05:58:35;;;;;;;16.12;12.40;;;26.30;97.00;;;;;;1934650;73;21119;-81
2023/02/05 06:01:07;;;;;;;12.73;11.35;;;26.30;96.90;;;;;;1945050;73;21213;-84
2023/02/05 06:03:38;;;;;;;15.23;11.80;;;26.30;97.00;;;;;;1933717;73;21217;-82
2023/02/05 06:06:10;;;;;;;14.75;12.30;;;26.30;97.20;;;;;;1929944;73;21119;-83
2023/02/05 06:08:41;;;;;;;17.37;13.08;;;26.30;97.00;;;;;;1927155;73;21060;-83
2023/02/05 06:11:12;;;;;;;16.45;12.07;;;26.30;97.00;;;;;;1925565;73;21201;-81
2023/02/05 06:13:44;;;;;;;12.95;11.12;;;26.30;96.90;;;;;;1932782;73;21611;-83
2023/02/05 06:16:15;;;;;;;13.98;11.22;;;26.30;96.90;;;;;;1927686;73;21119;-82
2023/02/05 06:18:45;;;;;;;12.40;10.80;;;26.30;96.70;;;;;;1933911;73;21127;-83
2023/02/05 06:21:16;;;;;;;13.35;10.70;;;26.30;96.60;;;;;;1935975;73;21135;-83
2023/02/05 06:23:47;;;;;;;11.78;10.50;;;26.30;96.50;;;;;;1937423;73;21666;-83
2023/02/05 06:26:18;;;;;;;13.08;10.32;;;26.40;96.50;;;;;;1929889;73;21064;-83
2023/02/05 06:28:49;;;;;;;13.08;11.25;;;26.40;96.40;;;;;;1903726;75;21177;-83
2023/02/05 06:31:20;;;;;;;12.37;11.08;;;26.40;96.40;;;;;;1865915;76;21130;-83
2023/02/05 06:33:51;;;;;;;16.10;12.43;;;26.40;96.50;;;;;;1898882;75;21120;-82
2023/02/05 06:36:24;;;;;;;13.78;11.75;;;26.40;96.50;;;;;;1883276;74;21151;-82
2023/02/05 06:38:57;;;;;;;15.15;12.70;;;26.40;96.50;;;;;;1888736;74;21489;-84
2023/02/05 06:41:28;;;;;;;14.30;12.68;;;26.40;96.50;;;;;;1867754;75;21175;-82
2023/02/05 06:43:59;;;;;;;16.93;11.53;;;26.40;96.60;;;;;;1890410;75;21088;-83
2023/02/05 06:46:30;;;;;;;15.63;11.75;;;26.40;96.60;;;;;;1881682;75;21129;-83
2023/02/05 06:49:01;;;;;;;15.35;12.40;;;26.50;96.50;;;;;;1864945;76;21127;-82
2023/02/05 06:51:31;;;;;;;14.10;12.60;;;26.50;96.60;;;;;;1886990;75;21180;-83
2023/02/05 06:54:03;;;;;;;13.40;11.78;;;26.50;96.60;;;;;;1859026;76;21191;-85
2023/02/05 06:56:35;;;;;;;13.22;11.65;;;26.50;96.60;;;;;;1887528;75;21253;-83
2023/02/05 06:59:07;;;;;;;13.43;11.48;;;26.50;96.60;;;;;;1887076;74;21084;-82
2023/02/05 07:01:40;;;;;;;16.25;11.75;;;26.50;96.50;;;;;;1884895;74;21107;-84
2023/02/05 07:04:11;;;;;;;13.65;11.28;;;26.60;96.50;;;;;;1848815;76;21178;-84
2023/02/05 07:06:41;;;;;;;13.68;12.15;;;26.60;96.40;;;;;;1936412;73;21173;-84
2023/02/05 07:09:12;;;;;;;13.78;12.23;;;26.60;96.20;;;;;;1928776;73;21104;-82
2023/02/05 07:11:46;;;;;;;14.38;11.93;;;26.70;96.20;;;;;;1942133;73;21131;-82
2023/02/05 07:14:17;;;;;;;12.65;10.18;;;26.70;96.30;;;;;;1933550;73;21163;-84
2023/02/05 07:16:49;;;;;;;15.83;10.82;;;26.70;96.30;;;;;;1924176;73;21052;-83
2023/02/05 07:19:21;;;;;;;14.23;11.25;;;26.80;96.20;;;;;;1942539;73;21192;-83
2023/02/05 07:21:54;;;;;;;12.75;10.58;;;26.80;96.20;;;;;;1938764;73;21143;-81
2023/02/05 07:24:25;;;;;;;12.80;10.70;;;26.80;96.20;;;;;;1935127;73;21119;-84
2023/02/05 07:26:56;;;;;;;13.60;10.75;;;26.80;95.90;;;;;;1931481;73;21233;-82
2023/02/05 07:29:28;;;;;;;12.00;10.43;;;26.80;95.80;;;;;;1939373;73;21072;-82
2023/02/05 07:31:59;;;;;;;13.62;9.98;;;26.80;96.00;;;;;;1939381;73;21528;-82
2023/02/05 07:34:29;;;;;;;11.55;10.35;;;26.70;95.70;;;;;;1929059;73;21185;-84
2023/02/05 07:37:00;;;;;;;12.58;10.63;;;26.70;95.80;;;;;;1940385;73;21142;-83
2023/02/05 07:39:32;;;;;;;13.28;10.58;;;26.70;95.90;;;;;;1922284;74;21106;-83
2023/02/05 07:42:03;;;;;;;14.10;9.38;;;26.80;95.90;;;;;;1918988;73;21132;-82
2023/02/05 07:44:33;;;;;;;15.00;10.05;;;26.70;95.90;;;;;;1882724;75;21486;-83
2023/02/05 07:47:08;;;;;;;10.28;9.23;;;26.80;95.80;;;;;;1915653;73;21166;-83
2023/02/05 07:49:44;;;;;;;14.60;10.03;;;26.80;95.70;;;;;;1870998;76;21146;-84
2023/02/05 07:52:15;;;;;;;12.53;9.63;;;26.80;95.70;;;;;;1929356;73;21130;-84
2023/02/05 07:54:46;;;;;;;11.68;9.58;;;26.80;95.60;;;;;;1918911;74;21092;-82
2023/02/05 07:57:18;;;;;;;14.35;10.00;;;26.80;95.60;;;;;;1921253;73;21497;-83
2023/02/05 07:59:49;;;;;;;10.90;8.98;;;26.80;95.50;;;;;;1935590;73;21152;-84
2023/02/05 08:02:30;;;;;;;17.67;9.70;;;26.80;95.50;;;;;;1915518;74;21084;-83
2023/02/05 08:05:18;;;;;;;15.13;9.85;;;26.90;95.60;;;;;;1918601;73;21099;-82
2023/02/05 08:07:59;;;;;;;12.82;10.40;;;26.80;95.50;;;;;;1874823;75;22124;-77
2023/02/05 08:10:30;;;;;;;16.17;9.80;;;26.90;95.40;;;;;;1911446;73;21088;-81
2023/02/05 08:13:01;;;;;;;10.98;9.03;;;26.90;95.50;;;;;;1921266;73;21220;-80
2023/02/05 08:15:32;;;;;;;12.53;9.45;;;26.90;95.50;;;;;;1877977;75;21092;-78
2023/02/05 08:18:04;;;;;;;12.40;9.63;;;26.90;95.20;;;;;;1916799;73;21132;-79
2023/02/05 08:20:38;;;;;;;11.70;9.28;;;27.00;95.20;;;;;;1912727;73;21190;-82
2023/02/05 08:23:09;;;;;;;11.30;9.48;;;27.00;95.10;;;;;;1919199;74;21197;-83
2023/02/05 08:25:44;;;;;;;13.10;8.85;;;27.00;95.10;;;;;;1874119;76;21159;-85
2023/02/05 08:28:13;;;;;;;16.45;10.45;;;27.00;95.10;;;;;;1921026;74;21126;-83
2023/02/05 08:31:04;;;;;;;15.08;9.80;;;27.00;95.10;;;;;;1916946;74;21192;-84
2023/02/05 08:33:37;;;;;;;16.12;10.75;;;27.10;95.10;;;;;;1919229;74;21216;-85
2023/02/05 08:36:09;;;;;;;15.68;9.80;;;27.10;95.10;;;;;;1924049;74;21243;-84
2023/02/05 08:38:40;;;;;;;14.18;10.72;;;27.10;95.00;;;;;;1921335;72;21142;-85
2023/02/05 08:41:14;;;;;;;13.15;9.90;;;27.10;94.80;;;;;;1924975;74;21074;-84
2023/02/05 08:43:46;;;;;;;15.70;11.18;;;27.10;94.70;;;;;;1927095;73;21165;-84
2023/02/05 08:46:24;;;;;;;15.45;11.03;;;27.10;94.70;;;;;;1901646;74;21119;-84
2023/02/05 08:48:57;;;;;;;12.23;10.70;;;27.10;94.80;;;;;;1915056;74;21576;-84
2023/02/05 08:51:28;;;;;;;17.05;11.40;;;27.10;94.80;;;;;;1920571;74;21180;-84
2023/02/05 08:53:59;;;;;;;12.03;9.88;;;27.10;94.80;;;;;;1914405;74;21146;-84
2023/02/05 08:56:30;;;;;;;16.50;10.80;;;27.00;94.70;;;;;;1910184;74;21123;-83
2023/02/05 08:59:01;;;;;;;13.65;9.78;;;27.00;94.70;;;;;;1924050;74;21118;-82
2023/02/05 09:01:32;;;;;;;21.87;10.58;;;27.00;94.80;;;;;;1905673;74;21189;-82
2023/02/05 09:04:05;;;;;;;16.15;10.65;;;27.00;94.80;;;;;;1916085;74;21157;-84
2023/02/05 09:06:36;;;;;;;11.35;9.73;;;26.90;94.70;;;;;;1912734;74;21154;-83
2023/02/05 09:09:07;;;;;;;14.98;10.15;;;26.90;94.70;;;;;;1913288;74;21170;-83
2023/02/05 09:11:38;;;;;;;14.40;10.90;;;26.90;94.60;;;;;;1933913;74;21111;-82
2023/02/05 09:14:09;;;;;;;12.82;10.70;;;26.90;94.50;;;;;;1915846;74;21088;-84
2023/02/05 09:16:40;;;;;;;13.40;10.10;;;26.90;94.60;;;;;;1904368;74;21186;-84
2023/02/05 09:19:11;;;;;;;12.88;10.40;;;26.90;94.50;;;;;;1905623;74;21537;-84
2023/02/05 09:21:42;;;;;;;16.07;11.75;;;26.90;94.50;;;;;;1913255;74;21106;-84
2023/02/05 09:24:13;;;;;;;16.23;11.43;;;26.90;94.60;;;;;;1917064;72;21221;-84
2023/02/05 09:26:43;;;;;;;14.60;11.00;;;26.90;94.80;;;;;;1879457;74;21142;-83
2023/02/05 09:29:14;;;;;;;15.83;10.93;;;26.90;94.90;;;;;;1912001;74;21163;-85
2023/02/05 09:31:45;;;;;;;15.43;10.75;;;26.90;94.80;;;;;;1908834;74;21103;-85
2023/02/05 09:34:16;;;;;;;17.70;10.68;;;26.80;94.70;;;;;;1885224;74;21135;-83
2023/02/05 09:36:55;;;;;;;17.25;11.12;;;26.80;94.90;;;;;;1895912;74;21139;-83
2023/02/05 09:39:26;;;;;;;17.60;11.43;;;26.80;95.00;;;;;;1877321;74;21147;-85
2023/02/05 09:42:03;;;;;;;14.03;11.38;;;26.80;95.10;;;;;;1897170;74;21286;-84
2023/02/05 09:44:53;;;;;;;20.32;11.57;;;26.80;95.10;;;;;;1894719;74;21182;-84
2023/02/05 09:47:29;;;;;;;18.98;12.00;;;26.80;95.20;;;;;;1906198;74;21076;-83
2023/02/05 09:50:13;;;;;;;16.83;12.03;;;26.80;95.30;;;;;;1897237;74;21085;-82
2023/02/05 09:52:49;;;;;;;30.10;13.40;;;26.80;95.30;;;;;;1902065;74;21080;-84
2023/02/05 09:55:24;;;;;;;22.85;13.48;;;26.80;95.40;;;;;;1913657;74;21153;-83
2023/02/05 09:57:57;;;;;;;17.55;13.13;;;26.90;95.50;;;;;;1893629;74;21095;-83
2023/02/05 10:00:31;;;;;;;15.95;12.40;;;26.90;95.40;;;;;;1893405;74;21173;-83
2023/02/05 10:03:19;;;;;;;14.07;11.65;;;26.80;95.40;;;;;;1893993;74;21730;-82
2023/02/05 10:06:12;;;;;;;18.55;12.68;;;26.80;95.40;;;;;;1907552;74;21135;-83
2023/02/05 10:09:06;;;;;;;15.30;11.90;;;26.80;95.40;;;;;;1900905;74;21111;-84
2023/02/05 10:12:03;;;;;;;14.35;11.83;;;26.80;95.40;;;;;;1891111;74;21194;-83
2023/02/05 10:14:59;;;;;;;17.55;13.00;;;26.80;95.40;;;;;;1895737;74;21063;-83
2023/02/05 10:17:38;;;;;;;17.90;13.10;;;26.80;95.60;;;;;;1894000;74;21212;-82
2023/02/05 10:20:37;;;;;;;14.60;12.23;;;26.80;95.60;;;;;;1892511;74;21073;-82
2023/02/05 10:23:11;;;;;;;15.90;12.33;;;26.70;95.60;;;;;;1891002;74;21136;-83
2023/02/05 10:26:11;;;;;;;16.40;11.93;;;26.70;95.70;;;;;;1898140;74;21151;-83
2023/02/05 10:29:07;;;;;;;16.12;11.53;;;26.70;95.80;;;;;;1894640;74;21190;-83
2023/02/05 10:31:46;;;;;;;14.25;11.80;;;26.70;95.70;;;;;;1894062;74;21140;-83
2023/02/05 10:34:39;;;;;;;16.55;11.80;;;26.70;95.70;;;;;;1888213;74;21158;-83
2023/02/05 10:37:18;;;;;;;15.68;12.28;;;26.70;95.80;;;;;;1889462;74;21174;-84
2023/02/05 10:39:49;;;;;;;20.70;13.18;;;26.70;95.70;;;;;;1890962;74;21155;-84
2023/02/05 10:42:37;;;;;;;18.05;13.25;;;26.70;95.70;;;;;;1896344;74;21111;-83
2023/02/05 10:45:20;;;;;;;15.18;12.30;;;26.70;95.90;;;;;;1903658;74;21163;-84
2023/02/05 10:48:12;;;;;;;19.73;13.13;;;26.70;95.80;;;;;;1910710;74;21158;-84
2023/02/05 10:51:03;;;;;;;19.10;13.90;;;26.70;95.80;;;;;;1891903;74;21489;-85
2023/02/05 10:53:35;;;;;;;20.15;13.93;;;26.70;95.80;;;;;;1888975;74;21581;-84
2023/02/05 10:56:07;;;;;;;22.30;15.30;;;26.60;95.80;;;;;;1891786;74;21138;-83
2023/02/05 10:58:43;;;;;;;26.68;17.70;;;26.60;95.90;;;;;;1902143;74;21133;-83
2023/02/05 11:01:19;;;;;;;33.83;18.52;;;26.60;95.90;;;;;;1896874;74;21237;-83
2023/02/05 11:04:05;;;;;;;32.78;19.55;;;26.60;96.00;;;;;;1899950;74;21601;-83
2023/02/05 11:06:41;;;;;;;35.23;15.20;;;26.60;96.00;;;;;;1892883;74;21175;-84
2023/02/05 11:09:29;;;;;;;26.37;14.60;;;26.60;96.10;;;;;;1897430;74;21727;-84
2023/02/05 11:12:02;;;;;;;25.43;13.85;;;26.50;96.10;;;;;;1888768;74;21567;-83
2023/02/05 11:14:36;;;;;;;24.10;13.53;;;26.50;96.20;;;;;;1899010;74;21174;-84
2023/02/05 11:17:11;;;;;;;23.83;13.50;;;26.50;96.30;;;;;;1892310;74;21135;-83
2023/02/05 11:19:57;;;;;;;19.95;13.32;;;26.50;96.30;;;;;;1889393;74;21193;-82
2023/02/05 11:22:29;;;;;;;;;;;26.50;96.40;;;;;;1887016;74;21095;-84
2023/02/05 11:25:17;;;;;;;18.35;12.58;;;26.50;96.50;;;;;;1879918;74;20197;-83
2023/02/05 11:27:59;;;;;;;22.07;14.53;;;26.40;96.50;;;;;;1882114;74;21189;-83
2023/02/05 11:30:37;;;;;;;23.45;14.43;;;26.40;96.70;;;;;;1904485;74;21669;-84
2023/02/05 11:33:30;;;;;;;24.05;15.98;;;26.40;96.80;;;;;;1888827;74;21647;-84
2023/02/05 11:36:04;;;;;;;23.95;14.73;;;26.30;96.80;;;;;;1897354;74;21213;-84
2023/02/05 11:38:44;;;;;;;21.87;14.50;;;26.30;97.00;;;;;;1885363;74;21221;-84
2023/02/05 11:41:17;;;;;;;21.85;13.62;;;26.30;97.00;;;;;;1892296;74;21296;-83
2023/02/05 11:43:50;;;;;;;20.12;13.93;;;26.30;97.10;;;;;;1873820;74;21639;-83
2023/02/05 11:46:23;;;;;;;22.80;14.15;;;26.30;97.30;;;;;;1888762;74;21095;-84
2023/02/05 11:49:02;;;;;;;24.82;13.90;;;26.20;97.20;;;;;;1892946;74;21615;-83
2023/02/05 11:51:47;;;;;;;34.85;14.45;;;26.20;97.40;;;;;;1891777;74;21741;-83
2023/02/05 11:54:33;;;;;;;21.80;13.88;;;26.20;97.40;;;;;;1850296;76;21965;-84
2023/02/05 11:57:21;;;;;;;24.67;13.48;;;26.20;97.40;;;;;;1843871;76;21150;-84
2023/02/05 12:00:03;;;;;;;27.30;12.88;;;26.10;97.50;;;;;;1841584;76;21874;-82
2023/02/05 12:02:37;;;;;;;24.95;14.83;;;26.10;97.50;;;;;;1887714;74;21135;-84
2023/02/05 12:05:10;;;;;;;27.15;14.47;;;26.10;97.40;;;;;;1884352;74;21146;-83
2023/02/05 12:08:03;;;;;;;31.00;14.15;;;26.10;97.40;;;;;;1876481;74;21128;-83
2023/02/05 12:10:43;;;;;;;26.85;13.13;;;26.20;97.40;;;;;;1892111;75;21698;-84
2023/02/05 12:13:32;;;;;;;30.50;13.45;;;26.20;97.40;;;;;;1888039;74;21152;-84
2023/02/05 12:16:17;;;;;;;28.23;13.40;;;26.20;97.40;;;;;;1895363;74;21192;-85
2023/02/05 12:19:13;;;;;;;25.00;13.22;;;26.20;97.50;;;;;;1888505;74;21222;-85
2023/02/05 12:22:14;;;;;;;28.70;13.03;;;26.20;97.50;;;;;;1889651;76;21213;-82
2023/02/05 12:25:10;;;;;;;29.02;14.05;;;26.20;97.50;;;;;;1889031;74;21185;-84
2023/02/05 12:28:02;;;;;;;34.43;13.67;;;26.10;97.50;;;;;;1891037;74;21244;-85
2023/02/05 12:31:01;;;;;;;21.05;13.22;;;26.10;97.60;;;;;;1889764;76;21404;-82
2023/02/05 12:33:55;;;;;;;26.23;12.93;;;26.10;97.60;;;;;;1876277;74;21197;-84
2023/02/05 12:36:37;;;;;;;24.90;12.93;;;26.10;97.70;;;;;;1793024;78;21616;-84
2023/02/05 12:39:13;;;;;;;25.20;13.10;;;26.10;97.70;;;;;;1787541;79;21298;-84
2023/02/05 12:41:46;;;;;;;29.63;13.43;;;26.10;97.60;;;;;;1844027;74;21144;-84
2023/02/05 12:44:22;;;;;;;26.27;13.25;;;26.10;97.60;;;;;;1893950;75;21189;-85
2023/02/05 12:46:59;;;;;;;26.67;13.67;;;26.10;97.50;;;;;;1903554;74;21194;-86
2023/02/05 12:50:10;;;;;;;21.70;13.20;;;26.00;97.50;;;;;;1898430;74;21138;-85
2023/02/05 12:52:59;;;;;;;28.40;14.20;;;26.10;97.50;;;;;;1898559;75;21155;-84
2023/02/05 12:55:36;;;;;;;30.88;14.63;;;26.00;97.50;;;;;;1898981;75;21164;-84
2023/02/05 12:58:09;;;;;;;25.45;13.65;;;26.00;97.70;;;;;;1857553;75;21100;-85
2023/02/05 13:00:54;;;;;;;26.40;13.68;;;26.00;97.70;;;;;;1898150;75;21151;-86
2023/02/05 13:03:36;;;;;;;27.85;13.35;;;25.90;97.70;;;;;;1894250;75;21092;-85
2023/02/05 13:06:14;;;;;;;26.37;14.35;;;25.90;97.70;;;;;;1897337;75;21117;-83
2023/02/05 13:09:00;;;;;;;26.10;13.22;;;25.90;97.70;;;;;;1900173;75;21232;-83
2023/02/05 13:11:54;;;;;;;23.57;13.60;;;25.90;97.70;;;;;;1902119;75;21162;-85
2023/02/05 13:14:31;;;;;;;26.35;14.85;;;25.90;97.80;;;;;;1901026;75;21117;-84
2023/02/05 13:17:13;;;;;;;20.95;13.72;;;25.90;97.80;;;;;;1899821;75;21116;-84